sensor_id;sensor_type;location;lat;lon;timestamp;P1;durP1;ratioP1;P2;durP2;ratioP2
22675;SDS011;12521;43.310;21.876;2023-02-18T00:04:31;148.0;;;120.0;;
22675;SDS011;12521;43.310;21.876;2023-02-18T00:09:09;144.0;;;116.0;;
22675;SDS011;12521;43.310;21.876;2023-02-18T00:13:48;144.0;;;116.0;;
22675;SDS011;12521;43.310;21.876;2023-02-18T00:18:36;134.0;;;104.0;;
22675;SDS011;12521;43.310;21.876;2023-02-18T00:23:15;134.0;;;104.0;;
22675;SDS011;12521;43.310;21.876;2023-02-18T00:27:51;125.0;;;93.0;;
22675;SDS011;12521;43.310;21.876;2023-02-18T00:32:27;125.0;;;93.0;;
22675;SDS011;12521;43.310;21.876;2023-02-18T00:37:04;112.0;;;83.0;;
22675;SDS011;12521;43.310;21.876;2023-02-18T00:41:40;112.0;;;83.0;;
22675;SDS011;12521;43.310;21.876;2023-02-18T00:46:18;99.0;;;73.0;;
22675;SDS011;12521;43.310;21.876;2023-02-18T00:50:57;99.0;;;73.0;;
22675;SDS011;12521;43.310;21.876;2023-02-18T00:55:37;96.0;;;76.0;;
22675;SDS011;12521;43.310;21.876;2023-02-18T01:00:17;96.0;;;76.0;;
22675;SDS011;12521;43.310;21.876;2023-02-18T01:04:55;96.0;;;76.0;;
22675;SDS011;12521;43.310;21.876;2023-02-18T01:09:32;94.0;;;78.0;;
22675;SDS011;12521;43.310;21.876;2023-02-18T01:14:08;94.0;;;78.0;;
22675;SDS011;12521;43.310;21.876;2023-02-18T01:18:45;88.0;;;72.0;;
22675;SDS011;12521;43.310;21.876;2023-02-18T01:23:22;88.0;;;72.0;;
22675;SDS011;12521;43.310;21.876;2023-02-18T01:28:02;83.0;;;66.0;;
22675;SDS011;12521;43.310;21.876;2023-02-18T01:32:49;83.0;;;66.0;;
22675;SDS011;12521;43.310;21.876;2023-02-18T01:37:27;82.0;;;64.0;;
22675;SDS011;12521;43.310;21.876;2023-02-18T01:42:05;82.0;;;64.0;;
22675;SDS011;12521;43.310;21.876;2023-02-18T01:47:02;81.0;;;61.0;;
22675;SDS011;12521;43.310;21.876;2023-02-18T01:51:40;81.0;;;61.0;;
22675;SDS011;12521;43.310;21.876;2023-02-18T01:56:38;102.0;;;74.0;;
22675;SDS011;12521;43.310;21.876;2023-02-18T02:01:33;102.0;;;74.0;;
22675;SDS011;12521;43.310;21.876;2023-02-18T02:06:18;123.0;;;88.0;;
22675;SDS011;12521;43.310;21.876;2023-02-18T02:11:03;123.0;;;88.0;;
22675;SDS011;12521;43.310;21.876;2023-02-18T02:16:37;94.0;;;70.0;;
22675;SDS011;12521;43.310;21.876;2023-02-18T02:22:04;94.0;;;70.0;;
22675;SDS011;12521;43.310;21.876;2023-02-18T02:30:12;64.0;;;53.0;;
22675;SDS011;12521;43.310;21.876;2023-02-18T02:36:28;80.0;;;63.0;;
22675;SDS011;12521;43.310;21.876;2023-02-18T02:41:39;80.0;;;63.0;;
22675;SDS011;12521;43.310;21.876;2023-02-18T02:47:00;96.0;;;73.0;;
22675;SDS011;12521;43.310;21.876;2023-02-18T02:52:11;96.0;;;73.0;;
22675;SDS011;12521;43.310;21.876;2023-02-18T02:57:39;98.0;;;73.0;;
22675;SDS011;12521;43.310;21.876;2023-02-18T03:02:31;98.0;;;73.0;;
22675;SDS011;12521;43.310;21.876;2023-02-18T03:08:12;101.0;;;73.0;;
22675;SDS011;12521;43.310;21.876;2023-02-18T03:13:33;101.0;;;73.0;;
22675;SDS011;12521;43.310;21.876;2023-02-18T03:18:49;109.0;;;76.0;;
22675;SDS011;12521;43.310;21.876;2023-02-18T03:23:54;109.0;;;76.0;;
22675;SDS011;12521;43.310;21.876;2023-02-18T03:28:47;117.0;;;78.0;;
22675;SDS011;12521;43.310;21.876;2023-02-18T03:33:36;117.0;;;78.0;;
22675;SDS011;12521;43.310;21.876;2023-02-18T03:38:42;116.0;;;80.0;;
22675;SDS011;12521;43.310;21.876;2023-02-18T03:43:49;116.0;;;80.0;;
22675;SDS011;12521;43.310;21.876;2023-02-18T03:48:39;115.0;;;83.0;;
22675;SDS011;12521;43.310;21.876;2023-02-18T03:53:18;115.0;;;83.0;;
22675;SDS011;12521;43.310;21.876;2023-02-18T03:57:55;104.0;;;79.0;;
22675;SDS011;12521;43.310;21.876;2023-02-18T04:02:32;104.0;;;79.0;;
22675;SDS011;12521;43.310;21.876;2023-02-18T04:07:09;93.0;;;75.0;;
22675;SDS011;12521;43.310;21.876;2023-02-18T04:11:47;93.0;;;75.0;;
22675;SDS011;12521;43.310;21.876;2023-02-18T04:16:24;84.0;;;68.0;;
22675;SDS011;12521;43.310;21.876;2023-02-18T04:21:01;84.0;;;68.0;;
22675;SDS011;12521;43.310;21.876;2023-02-18T04:25:41;74.0;;;61.0;;
22675;SDS011;12521;43.310;21.876;2023-02-18T04:30:18;74.0;;;61.0;;
22675;SDS011;12521;43.310;21.876;2023-02-18T04:34:55;74.0;;;61.0;;
22675;SDS011;12521;43.310;21.876;2023-02-18T04:39:32;74.0;;;60.0;;
22675;SDS011;12521;43.310;21.876;2023-02-18T04:44:08;74.0;;;60.0;;
22675;SDS011;12521;43.310;21.876;2023-02-18T04:48:45;73.0;;;59.0;;
22675;SDS011;12521;43.310;21.876;2023-02-18T04:53:22;73.0;;;59.0;;
22675;SDS011;12521;43.310;21.876;2023-02-18T04:57:58;66.0;;;54.0;;
22675;SDS011;12521;43.310;21.876;2023-02-18T05:02:34;66.0;;;54.0;;
22675;SDS011;12521;43.310;21.876;2023-02-18T05:07:11;59.0;;;50.0;;
22675;SDS011;12521;43.310;21.876;2023-02-18T05:11:48;59.0;;;50.0;;
22675;SDS011;12521;43.310;21.876;2023-02-18T05:16:25;64.0;;;50.0;;
22675;SDS011;12521;43.310;21.876;2023-02-18T05:21:02;64.0;;;50.0;;
22675;SDS011;12521;43.310;21.876;2023-02-18T05:25:41;68.0;;;51.0;;
22675;SDS011;12521;43.310;21.876;2023-02-18T05:30:17;68.0;;;51.0;;
22675;SDS011;12521;43.310;21.876;2023-02-18T05:34:55;68.0;;;51.0;;
22675;SDS011;12521;43.310;21.876;2023-02-18T05:39:31;72.0;;;56.0;;
22675;SDS011;12521;43.310;21.876;2023-02-18T05:44:08;72.0;;;56.0;;
22675;SDS011;12521;43.310;21.876;2023-02-18T05:48:44;75.0;;;60.0;;
22675;SDS011;12521;43.310;21.876;2023-02-18T05:53:21;75.0;;;60.0;;
22675;SDS011;12521;43.310;21.876;2023-02-18T05:57:57;68.0;;;54.0;;
22675;SDS011;12521;43.310;21.876;2023-02-18T06:02:33;68.0;;;54.0;;
22675;SDS011;12521;43.310;21.876;2023-02-18T06:07:10;62.0;;;47.0;;
22675;SDS011;12521;43.310;21.876;2023-02-18T06:11:46;62.0;;;47.0;;
22675;SDS011;12521;43.310;21.876;2023-02-18T06:16:23;74.0;;;57.0;;
22675;SDS011;12521;43.310;21.876;2023-02-18T06:21:03;74.0;;;57.0;;
22675;SDS011;12521;43.310;21.876;2023-02-18T06:25:41;86.0;;;67.0;;
22675;SDS011;12521;43.310;21.876;2023-02-18T06:30:19;86.0;;;67.0;;
22675;SDS011;12521;43.310;21.876;2023-02-18T06:34:57;86.0;;;67.0;;
22675;SDS011;12521;43.310;21.876;2023-02-18T06:39:33;136.0;;;96.0;;
22675;SDS011;12521;43.310;21.876;2023-02-18T06:44:10;136.0;;;96.0;;
22675;SDS011;12521;43.310;21.876;2023-02-18T06:48:47;185.0;;;124.0;;
22675;SDS011;12521;43.310;21.876;2023-02-18T06:53:24;185.0;;;124.0;;
22675;SDS011;12521;43.310;21.876;2023-02-18T06:58:01;138.0;;;96.0;;
22675;SDS011;12521;43.310;21.876;2023-02-18T07:02:40;138.0;;;96.0;;
22675;SDS011;12521;43.310;21.876;2023-02-18T07:07:18;90.0;;;69.0;;
22675;SDS011;12521;43.310;21.876;2023-02-18T07:11:54;90.0;;;69.0;;
22675;SDS011;12521;43.310;21.876;2023-02-18T07:16:31;81.0;;;62.0;;
22675;SDS011;12521;43.310;21.876;2023-02-18T07:21:07;81.0;;;62.0;;
22675;SDS011;12521;43.310;21.876;2023-02-18T07:25:44;72.0;;;54.0;;
22675;SDS011;12521;43.310;21.876;2023-02-18T07:30:21;72.0;;;54.0;;
22675;SDS011;12521;43.310;21.876;2023-02-18T07:34:57;72.0;;;54.0;;
22675;SDS011;12521;43.310;21.876;2023-02-18T07:39:34;68.0;;;51.0;;
22675;SDS011;12521;43.310;21.876;2023-02-18T07:44:17;68.0;;;51.0;;
22675;SDS011;12521;43.310;21.876;2023-02-18T07:48:53;65.0;;;48.0;;
22675;SDS011;12521;43.310;21.876;2023-02-18T07:53:32;65.0;;;48.0;;
22675;SDS011;12521;43.310;21.876;2023-02-18T07:58:13;101.0;;;80.0;;
22675;SDS011;12521;43.310;21.876;2023-02-18T08:02:51;101.0;;;80.0;;
22675;SDS011;12521;43.310;21.876;2023-02-18T08:07:28;137.0;;;112.0;;
22675;SDS011;12521;43.310;21.876;2023-02-18T08:12:04;137.0;;;112.0;;
22675;SDS011;12521;43.310;21.876;2023-02-18T08:16:44;111.0;;;92.0;;
22675;SDS011;12521;43.310;21.876;2023-02-18T08:21:21;111.0;;;92.0;;
22675;SDS011;12521;43.310;21.876;2023-02-18T08:26:01;85.0;;;71.0;;
22675;SDS011;12521;43.310;21.876;2023-02-18T08:30:37;85.0;;;71.0;;
22675;SDS011;12521;43.310;21.876;2023-02-18T08:35:19;85.0;;;71.0;;
22675;SDS011;12521;43.310;21.876;2023-02-18T08:39:56;80.0;;;68.0;;
22675;SDS011;12521;43.310;21.876;2023-02-18T08:44:33;80.0;;;68.0;;
22675;SDS011;12521;43.310;21.876;2023-02-18T08:49:09;75.0;;;64.0;;
22675;SDS011;12521;43.310;21.876;2023-02-18T08:53:46;75.0;;;64.0;;
22675;SDS011;12521;43.310;21.876;2023-02-18T08:58:24;82.0;;;69.0;;
22675;SDS011;12521;43.310;21.876;2023-02-18T09:03:01;82.0;;;69.0;;
22675;SDS011;12521;43.310;21.876;2023-02-18T09:07:39;89.0;;;74.0;;
22675;SDS011;12521;43.310;21.876;2023-02-18T09:12:17;89.0;;;74.0;;
22675;SDS011;12521;43.310;21.876;2023-02-18T09:16:55;86.0;;;71.0;;
22675;SDS011;12521;43.310;21.876;2023-02-18T09:21:33;86.0;;;71.0;;
22675;SDS011;12521;43.310;21.876;2023-02-18T09:26:12;84.0;;;68.0;;
22675;SDS011;12521;43.310;21.876;2023-02-18T09:31:02;84.0;;;68.0;;
22675;SDS011;12521;43.310;21.876;2023-02-18T09:35:52;81.0;;;65.0;;
22675;SDS011;12521;43.310;21.876;2023-02-18T09:40:30;81.0;;;65.0;;
22675;SDS011;12521;43.310;21.876;2023-02-18T09:45:29;81.0;;;65.0;;
22675;SDS011;12521;43.310;21.876;2023-02-18T09:50:12;78.0;;;62.0;;
22675;SDS011;12521;43.310;21.876;2023-02-18T09:55:16;78.0;;;62.0;;
22675;SDS011;12521;43.310;21.876;2023-02-18T10:00:12;54.0;;;42.0;;
22675;SDS011;12521;43.310;21.876;2023-02-18T10:05:12;54.0;;;42.0;;
22675;SDS011;12521;43.310;21.876;2023-02-18T10:09:52;30.0;;;23.0;;
22675;SDS011;12521;43.310;21.876;2023-02-18T10:14:59;30.0;;;23.0;;
22675;SDS011;12521;43.310;21.876;2023-02-18T10:19:37;41.0;;;32.0;;
22675;SDS011;12521;43.310;21.876;2023-02-18T10:24:25;41.0;;;32.0;;
22675;SDS011;12521;43.310;21.876;2023-02-18T10:29:17;52.0;;;40.0;;
22675;SDS011;12521;43.310;21.876;2023-02-18T10:34:02;52.0;;;40.0;;
22675;SDS011;12521;43.310;21.876;2023-02-18T10:39:19;48.0;;;39.0;;
22675;SDS011;12521;43.310;21.876;2023-02-18T10:44:51;48.0;;;39.0;;
22675;SDS011;12521;43.310;21.876;2023-02-18T10:50:18;43.0;;;38.0;;
22675;SDS011;12521;43.310;21.876;2023-02-18T10:55:18;43.0;;;38.0;;
22675;SDS011;12521;43.310;21.876;2023-02-18T11:00:20;40.0;;;34.0;;
22675;SDS011;12521;43.310;21.876;2023-02-18T11:05:18;40.0;;;34.0;;
22675;SDS011;12521;43.310;21.876;2023-02-18T11:10:08;37.0;;;30.0;;
22675;SDS011;12521;43.310;21.876;2023-02-18T11:15:04;37.0;;;30.0;;
22675;SDS011;12521;43.310;21.876;2023-02-18T11:20:00;33.0;;;26.0;;
22675;SDS011;12521;43.310;21.876;2023-02-18T11:25:18;33.0;;;26.0;;
22675;SDS011;12521;43.310;21.876;2023-02-18T11:30:06;29.0;;;21.0;;
22675;SDS011;12521;43.310;21.876;2023-02-18T11:35:06;29.0;;;21.0;;
22675;SDS011;12521;43.310;21.876;2023-02-18T11:40:04;24.0;;;19.0;;
22675;SDS011;12521;43.310;21.876;2023-02-18T11:45:24;24.0;;;19.0;;
22675;SDS011;12521;43.310;21.876;2023-02-18T11:50:14;20.0;;;17.0;;
22675;SDS011;12521;43.310;21.876;2023-02-18T11:54:59;20.0;;;17.0;;
22675;SDS011;12521;43.310;21.876;2023-02-18T11:59:56;18.0;;;16.0;;
22675;SDS011;12521;43.310;21.876;2023-02-18T12:04:59;18.0;;;16.0;;
22675;SDS011;12521;43.310;21.876;2023-02-18T12:10:02;17.0;;;14.0;;
22675;SDS011;12521;43.310;21.876;2023-02-18T12:15:11;17.0;;;14.0;;
22675;SDS011;12521;43.310;21.876;2023-02-18T12:20:48;15.0;;;12.0;;
22675;SDS011;12521;43.310;21.876;2023-02-18T12:26:33;13.0;;;10.0;;
22675;SDS011;12521;43.310;21.876;2023-02-18T12:32:02;13.0;;;10.0;;
22675;SDS011;12521;43.310;21.876;2023-02-18T12:37:31;17.0;;;12.0;;
22675;SDS011;12521;43.310;21.876;2023-02-18T12:43:36;17.0;;;12.0;;
22675;SDS011;12521;43.310;21.876;2023-02-18T12:49:16;21.0;;;15.0;;
22675;SDS011;12521;43.310;21.876;2023-02-18T12:55:16;21.0;;;15.0;;
22675;SDS011;12521;43.310;21.876;2023-02-18T13:00:47;19.0;;;14.0;;
22675;SDS011;12521;43.310;21.876;2023-02-18T13:06:20;17.0;;;13.0;;
22675;SDS011;12521;43.310;21.876;2023-02-18T13:12:34;17.0;;;13.0;;
22675;SDS011;12521;43.310;21.876;2023-02-18T13:17:42;18.0;;;14.0;;
22675;SDS011;12521;43.310;21.876;2023-02-18T13:22:34;18.0;;;14.0;;
22675;SDS011;12521;43.310;21.876;2023-02-18T13:27:13;20.0;;;16.0;;
22675;SDS011;12521;43.310;21.876;2023-02-18T13:32:23;20.0;;;16.0;;
22675;SDS011;12521;43.310;21.876;2023-02-18T13:37:52;20.0;;;17.0;;
22675;SDS011;12521;43.310;21.876;2023-02-18T13:43:38;20.0;;;17.0;;
22675;SDS011;12521;43.310;21.876;2023-02-18T13:48:24;21.0;;;18.0;;
22675;SDS011;12521;43.310;21.876;2023-02-18T13:53:13;21.0;;;18.0;;
22675;SDS011;12521;43.310;21.876;2023-02-18T13:58:00;22.0;;;18.0;;
22675;SDS011;12521;43.310;21.876;2023-02-18T14:02:37;22.0;;;18.0;;
22675;SDS011;12521;43.310;21.876;2023-02-18T14:08:04;24.0;;;17.0;;
22675;SDS011;12521;43.310;21.876;2023-02-18T14:13:38;24.0;;;17.0;;
22675;SDS011;12521;43.310;21.876;2023-02-18T14:18:31;34.0;;;25.0;;
22675;SDS011;12521;43.310;21.876;2023-02-18T14:23:38;34.0;;;25.0;;
22675;SDS011;12521;43.310;21.876;2023-02-18T14:28:38;44.0;;;33.0;;
22675;SDS011;12521;43.310;21.876;2023-02-18T14:33:38;44.0;;;33.0;;
22675;SDS011;12521;43.310;21.876;2023-02-18T14:39:17;40.0;;;30.0;;
22675;SDS011;12521;43.310;21.876;2023-02-18T14:45:09;40.0;;;30.0;;
22675;SDS011;12521;43.310;21.876;2023-02-18T14:50:53;36.0;;;26.0;;
22675;SDS011;12521;43.310;21.876;2023-02-18T14:55:33;36.0;;;26.0;;
22675;SDS011;12521;43.310;21.876;2023-02-18T15:00:32;37.0;;;26.0;;
22675;SDS011;12521;43.310;21.876;2023-02-18T15:05:19;37.0;;;26.0;;
22675;SDS011;12521;43.310;21.876;2023-02-18T15:10:14;38.0;;;27.0;;
22675;SDS011;12521;43.310;21.876;2023-02-18T15:14:51;38.0;;;27.0;;
22675;SDS011;12521;43.310;21.876;2023-02-18T15:19:42;56.0;;;45.0;;
22675;SDS011;12521;43.310;21.876;2023-02-18T15:24:37;56.0;;;45.0;;
22675;SDS011;12521;43.310;21.876;2023-02-18T15:29:14;74.0;;;63.0;;
22675;SDS011;12521;43.310;21.876;2023-02-18T15:34:12;74.0;;;63.0;;
22675;SDS011;12521;43.310;21.876;2023-02-18T15:39:13;88.0;;;74.0;;
22675;SDS011;12521;43.310;21.876;2023-02-18T15:43:50;88.0;;;74.0;;
22675;SDS011;12521;43.310;21.876;2023-02-18T15:48:42;102.0;;;86.0;;
22675;SDS011;12521;43.310;21.876;2023-02-18T15:53:25;102.0;;;86.0;;
22675;SDS011;12521;43.310;21.876;2023-02-18T15:58:03;98.0;;;83.0;;
22675;SDS011;12521;43.310;21.876;2023-02-18T16:03:01;98.0;;;83.0;;
22675;SDS011;12521;43.310;21.876;2023-02-18T16:08:03;93.0;;;80.0;;
22675;SDS011;12521;43.310;21.876;2023-02-18T16:13:02;93.0;;;80.0;;
22675;SDS011;12521;43.310;21.876;2023-02-18T16:17:41;159.0;;;131.0;;
22675;SDS011;12521;43.310;21.876;2023-02-18T16:22:23;159.0;;;131.0;;
22675;SDS011;12521;43.310;21.876;2023-02-18T16:27:20;225.0;;;182.0;;
22675;SDS011;12521;43.310;21.876;2023-02-18T16:32:07;225.0;;;182.0;;
22675;SDS011;12521;43.310;21.876;2023-02-18T16:36:44;230.0;;;187.0;;
22675;SDS011;12521;43.310;21.876;2023-02-18T16:41:20;230.0;;;187.0;;
22675;SDS011;12521;43.310;21.876;2023-02-18T16:45:57;230.0;;;187.0;;
22675;SDS011;12521;43.310;21.876;2023-02-18T16:50:51;234.0;;;192.0;;
22675;SDS011;12521;43.310;21.876;2023-02-18T16:55:29;234.0;;;192.0;;
22675;SDS011;12521;43.310;21.876;2023-02-18T17:00:06;216.0;;;176.0;;
22675;SDS011;12521;43.310;21.876;2023-02-18T17:04:48;216.0;;;176.0;;
22675;SDS011;12521;43.310;21.876;2023-02-18T17:09:25;199.0;;;159.0;;
22675;SDS011;12521;43.310;21.876;2023-02-18T17:14:01;199.0;;;159.0;;
22675;SDS011;12521;43.310;21.876;2023-02-18T17:18:38;235.0;;;173.0;;
22675;SDS011;12521;43.310;21.876;2023-02-18T17:23:15;235.0;;;173.0;;
22675;SDS011;12521;43.310;21.876;2023-02-18T17:27:59;271.0;;;187.0;;
22675;SDS011;12521;43.310;21.876;2023-02-18T17:32:39;271.0;;;187.0;;
22675;SDS011;12521;43.310;21.876;2023-02-18T17:37:19;253.0;;;180.0;;
22675;SDS011;12521;43.310;21.876;2023-02-18T17:41:56;253.0;;;180.0;;
22675;SDS011;12521;43.310;21.876;2023-02-18T17:46:33;235.0;;;172.0;;
22675;SDS011;12521;43.310;21.876;2023-02-18T17:51:11;235.0;;;172.0;;
22675;SDS011;12521;43.310;21.876;2023-02-18T17:56:02;235.0;;;172.0;;
22675;SDS011;12521;43.310;21.876;2023-02-18T18:00:40;220.0;;;168.0;;
22675;SDS011;12521;43.310;21.876;2023-02-18T18:05:30;220.0;;;168.0;;
22675;SDS011;12521;43.310;21.876;2023-02-18T18:10:18;205.0;;;164.0;;
22675;SDS011;12521;43.310;21.876;2023-02-18T18:20:08;174.0;;;139.0;;
22675;SDS011;12521;43.310;21.876;2023-02-18T18:24:47;174.0;;;139.0;;
22675;SDS011;12521;43.310;21.876;2023-02-18T18:29:24;144.0;;;114.0;;
22675;SDS011;12521;43.310;21.876;2023-02-18T18:34:01;144.0;;;114.0;;
22675;SDS011;12521;43.310;21.876;2023-02-18T18:38:38;131.0;;;102.0;;
22675;SDS011;12521;43.310;21.876;2023-02-18T18:43:16;131.0;;;102.0;;
22675;SDS011;12521;43.310;21.876;2023-02-18T18:48:02;118.0;;;91.0;;
22675;SDS011;12521;43.310;21.876;2023-02-18T18:52:41;118.0;;;91.0;;
22675;SDS011;12521;43.310;21.876;2023-02-18T18:57:21;117.0;;;89.0;;
22675;SDS011;12521;43.310;21.876;2023-02-18T19:01:57;117.0;;;89.0;;
22675;SDS011;12521;43.310;21.876;2023-02-18T19:06:34;116.0;;;87.0;;
22675;SDS011;12521;43.310;21.876;2023-02-18T19:11:11;116.0;;;87.0;;
22675;SDS011;12521;43.310;21.876;2023-02-18T19:15:52;116.0;;;87.0;;
22675;SDS011;12521;43.310;21.876;2023-02-18T19:20:49;152.0;;;118.0;;
22675;SDS011;12521;43.310;21.876;2023-02-18T19:25:25;152.0;;;118.0;;
22675;SDS011;12521;43.310;21.876;2023-02-18T19:30:03;187.0;;;148.0;;
22675;SDS011;12521;43.310;21.876;2023-02-18T19:34:49;187.0;;;148.0;;
22675;SDS011;12521;43.310;21.876;2023-02-18T19:39:26;220.0;;;177.0;;
22675;SDS011;12521;43.310;21.876;2023-02-18T19:44:02;220.0;;;177.0;;
22675;SDS011;12521;43.310;21.876;2023-02-18T19:48:40;252.0;;;206.0;;
22675;SDS011;12521;43.310;21.876;2023-02-18T19:53:17;252.0;;;206.0;;
22675;SDS011;12521;43.310;21.876;2023-02-18T19:57:54;215.0;;;178.0;;
22675;SDS011;12521;43.310;21.876;2023-02-18T20:02:30;215.0;;;178.0;;
22675;SDS011;12521;43.310;21.876;2023-02-18T20:07:08;178.0;;;149.0;;
22675;SDS011;12521;43.310;21.876;2023-02-18T20:11:52;178.0;;;149.0;;
22675;SDS011;12521;43.310;21.876;2023-02-18T20:16:29;178.0;;;144.0;;
22675;SDS011;12521;43.310;21.876;2023-02-18T20:21:08;178.0;;;144.0;;
22675;SDS011;12521;43.310;21.876;2023-02-18T20:25:47;178.0;;;144.0;;
22675;SDS011;12521;43.310;21.876;2023-02-18T20:30:24;177.0;;;139.0;;
22675;SDS011;12521;43.310;21.876;2023-02-18T20:35:02;177.0;;;139.0;;
22675;SDS011;12521;43.310;21.876;2023-02-18T20:39:43;165.0;;;132.0;;
22675;SDS011;12521;43.310;21.876;2023-02-18T20:44:19;165.0;;;132.0;;
22675;SDS011;12521;43.310;21.876;2023-02-18T20:48:57;153.0;;;126.0;;
22675;SDS011;12521;43.310;21.876;2023-02-18T20:53:34;153.0;;;126.0;;
22675;SDS011;12521;43.310;21.876;2023-02-18T20:58:19;170.0;;;134.0;;
22675;SDS011;12521;43.310;21.876;2023-02-18T21:02:56;170.0;;;134.0;;
22675;SDS011;12521;43.310;21.876;2023-02-18T21:07:32;188.0;;;141.0;;
22675;SDS011;12521;43.310;21.876;2023-02-18T21:12:09;188.0;;;141.0;;
22675;SDS011;12521;43.310;21.876;2023-02-18T21:16:45;179.0;;;142.0;;
22675;SDS011;12521;43.310;21.876;2023-02-18T21:21:23;179.0;;;142.0;;
22675;SDS011;12521;43.310;21.876;2023-02-18T21:26:02;179.0;;;142.0;;
22675;SDS011;12521;43.310;21.876;2023-02-18T21:30:49;170.0;;;143.0;;
22675;SDS011;12521;43.310;21.876;2023-02-18T21:35:25;170.0;;;143.0;;
22675;SDS011;12521;43.310;21.876;2023-02-18T21:40:03;158.0;;;129.0;;
22675;SDS011;12521;43.310;21.876;2023-02-18T21:44:42;158.0;;;129.0;;
22675;SDS011;12521;43.310;21.876;2023-02-18T21:49:19;146.0;;;115.0;;
22675;SDS011;12521;43.310;21.876;2023-02-18T21:53:55;146.0;;;115.0;;
22675;SDS011;12521;43.310;21.876;2023-02-18T21:58:31;138.0;;;110.0;;
22675;SDS011;12521;43.310;21.876;2023-02-18T22:03:07;138.0;;;110.0;;
22675;SDS011;12521;43.310;21.876;2023-02-18T22:07:44;131.0;;;106.0;;
22675;SDS011;12521;43.310;21.876;2023-02-18T22:12:21;131.0;;;106.0;;
22675;SDS011;12521;43.310;21.876;2023-02-18T22:17:01;122.0;;;100.0;;
22675;SDS011;12521;43.310;21.876;2023-02-18T22:21:37;122.0;;;100.0;;
22675;SDS011;12521;43.310;21.876;2023-02-18T22:26:17;122.0;;;100.0;;
22675;SDS011;12521;43.310;21.876;2023-02-18T22:30:56;112.0;;;94.0;;
22675;SDS011;12521;43.310;21.876;2023-02-18T22:35:33;112.0;;;94.0;;
22675;SDS011;12521;43.310;21.876;2023-02-18T22:40:10;147.0;;;116.0;;
22675;SDS011;12521;43.310;21.876;2023-02-18T22:44:47;147.0;;;116.0;;
22675;SDS011;12521;43.310;21.876;2023-02-18T22:49:24;182.0;;;137.0;;
22675;SDS011;12521;43.310;21.876;2023-02-18T22:54:02;182.0;;;137.0;;
22675;SDS011;12521;43.310;21.876;2023-02-18T22:58:53;170.0;;;127.0;;
22675;SDS011;12521;43.310;21.876;2023-02-18T23:03:35;170.0;;;127.0;;
22675;SDS011;12521;43.310;21.876;2023-02-18T23:08:12;158.0;;;117.0;;
22675;SDS011;12521;43.310;21.876;2023-02-18T23:12:50;158.0;;;117.0;;
22675;SDS011;12521;43.310;21.876;2023-02-18T23:17:28;130.0;;;98.0;;
22675;SDS011;12521;43.310;21.876;2023-02-18T23:22:04;130.0;;;98.0;;
22675;SDS011;12521;43.310;21.876;2023-02-18T23:26:46;103.0;;;79.0;;
22675;SDS011;12521;43.310;21.876;2023-02-18T23:31:25;103.0;;;79.0;;
22675;SDS011;12521;43.310;21.876;2023-02-18T23:36:06;103.0;;;79.0;;
22675;SDS011;12521;43.310;21.876;2023-02-18T23:40:51;94.0;;;76.0;;
22675;SDS011;12521;43.310;21.876;2023-02-18T23:45:28;94.0;;;76.0;;
22675;SDS011;12521;43.310;21.876;2023-02-18T23:50:05;84.0;;;72.0;;
22675;SDS011;12521;43.310;21.876;2023-02-18T23:54:43;84.0;;;72.0;;
22675;SDS011;12521;43.310;21.876;2023-02-18T23:59:19;88.0;;;74.0;;
